Time;durP1;ratioP1;P1;durP2;ratioP2;P2;SDS_P1;SDS_P2;PMS_P1;PMS_P2;Temp;Humidity;BMP_temperature;BMP_pressure;BME280_temperature;BME280_humidity;BME280_pressure;Samples;Min_cycle;Max_cycle;Signal;HPM_P1;HPM_P2
2024/04/10 00:00:54;;;;;;;6.40;2.37;;;11.50;99.90;;;-141.84;78.39;33788.94;5486024;26;20283;-68
2024/04/10 00:03:25;;;;;;;3.00;2.10;;;11.60;99.90;;;-141.84;77.54;29616.00;5474669;26;20304;-68
2024/04/10 00:06:04;;;;;;;3.53;2.40;;;11.60;99.90;;;-141.84;77.42;27691.09;5489535;26;20282;-67
2024/04/10 00:08:36;;;;;;;4.63;2.03;;;11.50;99.90;;;-141.84;75.78;23142.22;5481000;26;20748;-59
2024/04/10 00:11:04;;;;;;;4.43;2.20;;;11.50;99.90;;;-141.84;76.95;26632.25;5485894;26;20225;-59
2024/04/10 00:13:39;;;;;;;2.97;2.40;;;11.50;99.90;;;-141.84;77.53;29135.19;5474676;26;20581;-59
2024/04/10 00:16:08;;;;;;;4.10;2.37;;;11.50;99.90;;;-141.84;77.11;26970.25;5486322;26;20291;-60
2024/04/10 00:18:39;;;;;;;4.60;2.90;;;11.50;99.90;;;-141.84;74.98;21810.13;5486058;26;20312;-59
2024/04/10 00:21:09;;;;;;;4.53;2.50;;;11.50;99.90;;;-141.84;73.78;20720.38;5487234;26;20248;-59
2024/04/10 00:23:39;;;;;;;3.30;2.07;;;11.50;99.90;;;-141.84;75.28;22682.56;5487401;26;20300;-59
2024/04/10 00:26:07;;;;;;;3.17;1.97;;;11.60;99.90;;;-141.84;74.64;21185.91;5487377;26;20784;-60
2024/04/10 00:28:37;;;;;;;3.73;2.27;;;11.60;99.90;;;-141.84;73.69;20726.47;5484453;26;20233;-60
2024/04/10 00:31:06;;;;;;;4.33;2.50;;;11.60;99.90;;;-141.84;73.27;20488.63;5488650;26;20249;-60
2024/04/10 00:33:40;;;;;;;4.83;2.27;;;11.60;99.90;;;-141.84;71.27;19746.78;5489348;26;20515;-60
2024/04/10 00:36:11;;;;;;;2.67;2.07;;;11.60;99.90;;;-141.84;73.02;20265.03;5486794;26;20311;-60
2024/04/10 00:38:41;;;;;;;4.47;2.17;;;11.50;99.90;;;-141.84;74.17;21122.91;5487347;26;20260;-59
2024/04/10 00:41:08;;;;;;;4.13;2.07;;;11.50;99.90;;;-141.84;73.21;20366.69;5486824;26;20229;-60
2024/04/10 00:43:39;;;;;;;4.50;2.00;;;11.50;99.90;;;-141.84;74.50;21151.34;5490434;26;20652;-60
2024/04/10 00:46:14;;;;;;;3.57;2.20;;;11.40;99.90;;;-141.84;74.64;21092.41;5487193;26;20252;-59
2024/04/10 00:48:46;;;;;;;4.00;2.10;;;11.30;99.90;;;-141.84;73.63;20423.59;5486688;26;20256;-59
2024/04/10 00:51:20;;;;;;;3.30;1.83;;;11.40;99.90;;;-141.84;75.17;22151.75;5486847;26;20300;-59
2024/04/10 00:53:51;;;;;;;2.67;2.20;;;11.50;99.90;;;-141.84;74.33;21175.75;5486447;26;20728;-60
2024/04/10 00:56:19;;;;;;;4.10;1.70;;;11.50;99.90;;;-141.84;75.85;23243.94;5485845;26;20298;-60
2024/04/10 00:58:54;;;;;;;5.40;2.30;;;11.50;99.90;;;-141.84;74.97;21867.06;5485777;26;21149;-59
2024/04/10 01:01:23;;;;;;;3.87;2.03;;;11.40;99.90;;;-141.84;75.45;22428.31;5485931;26;20290;-59
2024/04/10 01:03:56;;;;;;;3.63;2.10;;;11.40;99.90;;;-141.84;75.80;22991.72;5484166;26;20295;-60
2024/04/10 01:06:29;;;;;;;4.20;2.03;;;11.40;99.90;;;-141.84;75.34;22338.84;5485537;26;20728;-59
2024/04/10 01:09:02;;;;;;;2.90;2.03;;;11.40;99.90;;;-141.84;74.96;21753.19;5485457;26;20307;-59
2024/04/10 01:11:30;;;;;;;4.20;2.00;;;11.40;99.90;;;-141.84;74.72;21639.31;5485217;26;20263;-60
2024/04/10 01:14:01;;;;;;;3.90;2.10;;;11.40;99.90;;;-141.84;72.92;20074.00;5486688;26;20475;-59
2024/04/10 01:16:28;;;;;;;2.27;2.03;;;11.40;99.90;;;-141.84;72.57;20130.91;5485133;26;20279;-59
2024/04/10 01:18:59;;;;;;;3.73;2.17;;;11.50;99.90;;;-141.84;71.38;19793.50;5484947;26;20260;-59
2024/04/10 01:21:29;;;;;;;4.40;1.80;;;11.50;99.90;;;-141.84;72.61;20017.09;5484964;26;20248;-59
2024/04/10 01:25:37;;;;;;;3.37;2.03;;;11.50;99.90;;;-141.84;71.97;19901.22;5469283;25;20567;-60
2024/04/10 01:28:04;;;;;;;3.30;2.00;;;11.50;99.90;;;-141.84;71.72;19769.13;5387881;26;20286;-59
2024/04/10 01:30:36;;;;;;;7.07;2.23;;;11.50;99.90;;;-141.84;73.07;20244.72;5362907;26;20251;-59
2024/04/10 01:33:04;;;;;;;3.67;2.03;;;11.50;99.90;;;-141.84;71.94;19915.47;5362098;26;20260;-59
2024/04/10 01:35:37;;;;;;;2.90;1.97;;;11.50;99.90;;;-141.84;70.60;19618.75;5368745;26;20750;-59
2024/04/10 01:38:04;;;;;;;3.23;2.07;;;11.50;99.90;;;-141.84;68.71;19511.03;5372858;26;20287;-59
2024/04/10 01:40:38;;;;;;;2.37;1.80;;;11.60;99.90;;;-141.84;70.77;19681.75;5377527;26;20275;-60
2024/04/10 01:43:05;;;;;;;3.77;2.10;;;11.50;99.90;;;-141.84;71.76;19858.56;5391637;26;20251;-59
2024/04/10 01:45:38;;;;;;;1.90;1.73;;;11.40;99.90;;;-141.84;71.28;19758.97;5376753;26;20256;-60
2024/04/10 01:48:06;;;;;;;4.20;2.07;;;11.50;99.90;;;-141.84;70.35;19588.25;5362211;26;20357;-59
2024/04/10 01:50:40;;;;;;;3.77;2.00;;;11.40;99.90;;;-141.84;69.99;19610.59;5360516;26;20330;-60
2024/04/10 01:53:07;;;;;;;2.87;1.90;;;11.40;99.90;;;-141.84;69.83;19537.44;5361179;26;20224;-59
2024/04/10 01:55:40;;;;;;;4.83;2.00;;;11.40;99.90;;;-141.84;69.78;19578.09;5360836;26;20720;-60
2024/04/10 01:58:07;;;;;;;3.87;2.20;;;11.40;99.90;;;-141.84;68.09;19462.25;5361304;26;20786;-59
2024/04/10 02:00:39;;;;;;;4.30;1.80;;;11.40;99.90;;;-141.84;67.77;19472.41;5361622;26;20781;-59
2024/04/10 02:03:07;;;;;;;4.37;1.97;;;11.40;99.90;;;-141.84;68.00;19494.78;5360069;26;20326;-60
2024/04/10 02:05:38;;;;;;;6.57;2.10;;;11.50;99.90;;;-141.84;67.21;19468.34;5378196;26;20270;-59
2024/04/10 02:08:06;;;;;;;3.33;1.70;;;11.50;99.90;;;-141.84;67.42;19484.59;5425648;26;20238;-67
2024/04/10 02:10:40;;;;;;;2.80;1.60;;;11.50;99.90;;;-141.84;66.67;19443.97;5417152;26;20251;-68
2024/04/10 02:13:07;;;;;;;2.33;1.50;;;11.50;99.90;;;-141.84;67.63;19480.53;5416292;26;20250;-70
2024/04/10 02:15:37;;;;;;;2.93;2.00;;;11.60;99.90;;;-141.84;66.98;19452.09;5430896;26;20253;-68
2024/04/10 02:18:05;;;;;;;4.90;2.00;;;11.50;99.90;;;-141.84;66.31;19441.94;5415085;26;20292;-67
2024/04/10 02:20:39;;;;;;;2.03;1.60;;;11.50;99.90;;;-141.84;66.38;19421.63;5431587;26;20300;-68
2024/04/10 02:23:07;;;;;;;2.67;1.63;;;11.50;99.90;;;-141.84;65.13;19387.06;5428394;26;20666;-66
2024/04/10 02:25:43;;;;;;;3.80;1.80;;;11.50;99.90;;;-141.84;65.54;19395.19;5429399;26;20833;-67
2024/04/10 02:28:11;;;;;;;4.57;1.70;;;11.50;99.90;;;-141.84;64.34;19389.09;5423439;26;20265;-68
2024/04/10 02:30:41;;;;;;;3.17;1.43;;;11.50;99.90;;;-141.84;65.42;19399.25;5426070;26;20816;-66
2024/04/10 02:33:08;;;;;;;3.17;1.50;;;11.50;99.90;;;-141.84;64.21;19389.09;5418621;26;20251;-66
2024/04/10 02:35:39;;;;;;;4.50;2.10;;;11.50;99.90;;;-141.84;64.95;19415.50;5413915;26;20258;-67
2024/04/10 02:38:06;;;;;;;4.33;1.60;;;11.50;99.90;;;-141.84;65.12;19399.25;5409831;26;20663;-67
2024/04/10 02:40:40;;;;;;;2.83;1.60;;;11.40;99.90;;;-141.84;64.55;19421.63;5408523;26;20227;-67
2024/04/10 02:43:10;;;;;;;2.10;1.53;;;11.40;99.90;;;-141.84;66.28;19448.03;5400630;26;20267;-67
2024/04/10 02:45:40;;;;;;;2.50;1.70;;;11.40;99.90;;;-141.84;63.35;19399.25;5405100;26;20256;-66
2024/04/10 02:48:07;;;;;;;3.13;1.90;;;11.40;99.90;;;-141.84;62.40;19395.19;5402717;26;20255;-66
2024/04/10 02:50:38;;;;;;;3.40;1.37;;;11.50;99.90;;;-141.84;64.09;19401.28;5400656;26;20247;-67
2024/04/10 02:53:05;;;;;;;2.37;1.60;;;11.40;99.90;;;-141.84;63.27;19413.47;5413149;26;20235;-66
2024/04/10 02:55:37;;;;;;;3.90;1.70;;;11.40;99.90;;;-141.84;64.63;19391.13;5412704;26;20269;-67
2024/04/10 02:58:05;;;;;;;4.53;2.17;;;11.30;99.90;;;-141.84;65.03;19399.25;5411271;26;20258;-66
2024/04/10 03:00:45;;;;;;;4.50;1.50;;;11.30;99.90;;;-141.84;63.56;19372.84;5414675;26;20340;-67
2024/04/10 03:03:15;;;;;;;2.90;1.60;;;11.30;99.90;;;-141.84;64.67;19405.34;5413968;26;20318;-67
2024/04/10 03:05:47;;;;;;;4.40;1.60;;;11.20;99.90;;;-141.84;63.06;19391.13;5410480;26;20608;-68
2024/04/10 03:08:15;;;;;;;3.40;1.87;;;11.30;99.90;;;-141.84;62.79;19374.88;5407414;26;20227;-68
2024/04/10 03:10:45;;;;;;;2.50;1.40;;;11.30;99.90;;;-141.84;64.08;19389.09;5412980;26;20342;-69
2024/04/10 03:13:15;;;;;;;3.73;1.70;;;11.30;99.90;;;-141.84;64.16;19399.25;5413813;26;20247;-67
2024/04/10 03:15:47;;;;;;;3.50;1.93;;;11.30;99.90;;;-141.84;63.38;19370.81;5394743;26;20676;-67
2024/04/10 03:18:16;;;;;;;4.00;2.00;;;11.30;99.90;;;-141.84;63.32;19425.69;5408195;26;20251;-67
2024/04/10 03:20:47;;;;;;;3.10;1.87;;;11.30;99.90;;;-141.84;64.33;19389.09;5414278;26;20314;-67
2024/04/10 03:23:15;;;;;;;5.53;1.40;;;11.30;99.90;;;-141.84;62.21;19326.09;5401022;26;20745;-67
2024/04/10 03:25:45;;;;;;;2.53;1.50;;;11.30;99.90;;;-141.84;61.46;19364.72;5414052;26;20227;-67
2024/04/10 03:28:14;;;;;;;2.70;1.70;;;11.30;99.90;;;-141.84;63.01;19372.84;5412118;26;20259;-67
2024/04/10 03:30:54;;;;;;;3.33;1.80;;;11.30;99.90;;;-141.84;62.92;19376.91;5405419;26;20262;-67
2024/04/10 03:33:24;;;;;;;3.83;1.50;;;11.20;99.90;;;-141.84;63.99;19403.31;5389859;26;20267;-67
2024/04/10 03:35:57;;;;;;;4.67;1.67;;;11.20;99.90;;;-141.84;62.87;19370.81;5417958;26;20293;-70
2024/04/10 03:38:26;;;;;;;3.83;1.83;;;11.30;99.90;;;-141.84;63.24;19378.94;5408534;26;20263;-67
2024/04/10 03:40:57;;;;;;;1.67;1.50;;;11.20;99.90;;;-141.84;62.39;19366.75;5417350;26;20312;-67
2024/04/10 03:43:28;;;;;;;2.97;1.57;;;11.20;99.90;;;-141.84;62.50;19356.59;5415769;26;20305;-67
2024/04/10 03:46:00;;;;;;;5.10;1.70;;;11.10;99.90;;;-141.84;62.67;19362.69;5414532;26;20667;-68
2024/04/10 03:48:30;;;;;;;3.60;1.50;;;11.20;99.90;;;-141.84;63.69;19374.88;5403059;26;20255;-68
2024/04/10 03:51:02;;;;;;;3.43;1.60;;;11.20;99.90;;;-141.84;62.10;19395.19;5414024;26;20251;-68
2024/04/10 03:53:31;;;;;;;3.50;1.50;;;11.20;99.90;;;-141.84;62.21;19383.00;5410130;26;20251;-68
2024/04/10 03:56:02;;;;;;;4.03;2.03;;;11.20;99.90;;;-141.84;62.16;19348.47;5410293;26;20231;-67
2024/04/10 03:58:30;;;;;;;3.30;1.50;;;11.20;99.90;;;-141.84;62.79;19342.34;5412037;26;20234;-68
2024/04/10 04:01:02;;;;;;;4.03;1.53;;;11.20;99.90;;;-141.84;62.11;19397.22;5397594;26;20254;-67
2024/04/10 04:03:30;;;;;;;3.73;1.63;;;11.20;99.90;;;-141.84;63.30;19391.13;5404883;26;20262;-68
2024/04/10 04:06:00;;;;;;;3.70;1.53;;;11.10;99.90;;;-141.84;63.29;19372.84;5406493;26;20255;-68
2024/04/10 04:08:27;;;;;;;3.90;1.70;;;11.10;99.90;;;-141.84;62.52;19360.66;5394619;26;20298;-67
2024/04/10 04:10:58;;;;;;;4.10;1.37;;;11.20;99.90;;;-141.84;62.95;19399.25;5391421;26;20718;-67
2024/04/10 04:13:26;;;;;;;4.87;1.80;;;11.20;99.90;;;-141.84;62.77;19397.22;5398764;26;20325;-67
2024/04/10 04:16:02;;;;;;;5.13;1.67;;;11.20;99.90;;;-141.84;61.70;19378.94;5398675;26;20336;-67
2024/04/10 04:18:30;;;;;;;5.20;1.63;;;11.20;99.90;;;-141.84;61.20;19366.75;5412966;26;20254;-67
2024/04/10 04:21:00;;;;;;;3.90;1.60;;;11.20;99.90;;;-141.84;61.49;19387.06;5413890;26;20258;-67
2024/04/10 04:23:27;;;;;;;3.93;1.60;;;11.20;99.90;;;-141.84;61.51;19366.75;5407301;26;20244;-67
2024/04/10 04:25:58;;;;;;;3.70;1.70;;;11.20;99.90;;;-141.84;62.58;19368.78;5404409;26;20269;-67
2024/04/10 04:28:26;;;;;;;2.53;1.47;;;11.20;99.90;;;-141.84;62.55;19358.63;5417440;26;20240;-68
2024/04/10 04:31:03;;;;;;;2.80;1.70;;;11.20;99.90;;;-141.84;61.33;19385.03;5405970;26;20260;-67
2024/04/10 04:33:30;;;;;;;4.17;1.87;;;11.20;99.90;;;-141.84;62.08;19362.69;5411406;26;20285;-67
2024/04/10 04:36:02;;;;;;;4.90;1.50;;;11.20;99.90;;;-141.84;62.63;19366.75;5408202;26;20318;-67
2024/04/10 04:38:29;;;;;;;3.80;2.03;;;11.10;99.90;;;-141.84;62.51;19366.75;5411266;26;20262;-67
2024/04/10 04:41:00;;;;;;;4.10;1.70;;;11.10;99.90;;;-141.84;63.53;19387.06;5398224;26;20247;-67
2024/04/10 04:43:27;;;;;;;5.73;1.47;;;11.10;99.90;;;-141.84;61.65;19393.16;5402025;26;20239;-67
2024/04/10 04:45:59;;;;;;;3.20;1.57;;;11.20;99.90;;;-141.84;62.30;19370.81;5402355;26;20367;-67
2024/04/10 04:48:29;;;;;;;4.80;1.67;;;11.10;99.90;;;-141.84;63.31;19389.09;5412701;26;20297;-67
2024/04/10 04:50:59;;;;;;;3.37;1.63;;;11.10;99.90;;;-141.84;63.20;19391.13;5412587;26;20347;-68
2024/04/10 04:53:27;;;;;;;3.27;1.47;;;11.10;99.90;;;-141.84;63.34;19397.22;5411331;26;20247;-68
2024/04/10 04:56:01;;;;;;;2.67;1.50;;;11.10;99.90;;;-141.84;63.20;19340.31;5397976;26;20250;-67
2024/04/10 04:58:28;;;;;;;3.60;1.73;;;11.10;99.90;;;-141.84;62.70;19360.66;5411977;26;20297;-68
2024/04/10 05:01:02;;;;;;;4.60;1.93;;;11.20;99.90;;;-141.84;61.27;19383.00;5392823;26;20267;-68
2024/04/10 05:06:21;;;;;;;4.60;1.50;;;11.20;99.90;;;-141.84;61.10;19348.47;5410741;26;20355;-67
2024/04/10 05:08:52;;;;;;;2.67;1.47;;;11.20;99.90;;;-141.84;61.44;19393.16;5408188;26;20250;-67
2024/04/10 05:11:21;;;;;;;3.37;1.67;;;11.20;99.90;;;-141.84;60.63;19372.84;5403772;26;20301;-68
2024/04/10 05:13:51;;;;;;;2.10;1.50;;;11.20;99.90;;;-141.84;61.62;19370.81;5396087;26;20270;-67
2024/04/10 05:16:20;;;;;;;4.03;1.67;;;11.20;99.90;;;-141.84;62.26;19397.22;5381195;26;20363;-68
2024/04/10 05:18:53;;;;;;;4.73;1.60;;;11.20;99.90;;;-141.84;61.71;19370.81;5411943;26;20275;-68
2024/04/10 05:21:20;;;;;;;4.37;1.80;;;11.20;99.90;;;-141.84;61.60;19376.91;5412840;26;20593;-67
2024/04/10 05:23:50;;;;;;;4.87;1.70;;;11.20;99.90;;;-141.84;62.15;19407.38;5401791;26;20255;-67
2024/04/10 05:26:18;;;;;;;2.80;1.80;;;11.20;99.90;;;-141.84;61.23;19383.00;5375168;26;20222;-67
2024/04/10 05:28:48;;;;;;;4.83;1.90;;;11.30;99.90;;;-141.84;60.56;19383.00;5406098;26;20330;-67
2024/04/10 05:31:15;;;;;;;4.07;1.77;;;11.20;99.90;;;-141.84;61.38;19366.75;5396964;26;20267;-67
2024/04/10 05:33:45;;;;;;;4.60;1.83;;;11.30;99.90;;;-141.84;61.53;19391.13;5412080;26;20289;-67
2024/04/10 05:36:15;;;;;;;5.80;1.90;;;11.20;99.90;;;-141.84;61.85;19391.13;5411866;26;20250;-68
2024/04/10 05:38:45;;;;;;;3.27;1.70;;;11.30;99.90;;;-141.84;61.29;19374.88;5409847;26;20345;-68
2024/04/10 05:41:13;;;;;;;2.43;1.83;;;11.30;99.90;;;-141.84;61.26;19372.84;5411727;26;20275;-67
2024/04/10 05:43:47;;;;;;;4.77;1.80;;;11.30;99.90;;;-141.84;61.37;19362.69;5396129;26;20232;-68
2024/04/10 05:46:15;;;;;;;3.67;1.90;;;11.30;99.90;;;-141.84;59.84;19397.22;5398546;26;20777;-66
2024/04/10 05:48:45;;;;;;;3.20;1.53;;;11.40;99.90;;;-141.84;60.16;19409.41;5411746;26;20255;-67
2024/04/10 05:51:16;;;;;;;4.20;1.60;;;11.40;99.90;;;-141.84;59.08;19397.22;5407606;26;20266;-68
2024/04/10 05:53:47;;;;;;;3.63;1.67;;;11.40;99.90;;;-141.84;59.99;19376.91;5408055;26;20286;-68
2024/04/10 05:56:15;;;;;;;2.77;1.53;;;11.40;99.90;;;-141.84;60.26;19391.13;5410248;26;20235;-68
2024/04/10 05:58:45;;;;;;;3.13;1.53;;;11.50;99.90;;;-141.84;59.71;19391.13;5410989;26;20285;-68
2024/04/10 06:01:14;;;;;;;4.57;1.90;;;11.50;99.90;;;-141.84;60.25;19399.25;5406967;26;20254;-66
2024/04/10 06:03:47;;;;;;;3.83;1.70;;;11.50;99.90;;;-141.84;59.39;19383.00;5398180;26;20297;-66
2024/04/10 06:06:17;;;;;;;4.77;1.90;;;11.60;99.90;;;-141.84;58.60;19413.47;5389687;26;20613;-67
2024/04/10 06:08:47;;;;;;;5.17;1.57;;;11.60;99.90;;;-141.84;59.24;19429.75;5411124;26;20293;-67
2024/04/10 06:11:15;;;;;;;4.43;1.70;;;11.70;99.90;;;-141.84;57.80;19427.72;5403114;26;20566;-68
2024/04/10 06:13:51;;;;;;;4.90;1.87;;;11.70;99.90;;;-141.84;57.87;19423.66;5391755;26;20553;-67
2024/04/10 06:16:19;;;;;;;5.27;1.90;;;11.70;99.90;;;-141.84;56.75;19411.44;5410614;26;20778;-68
2024/04/10 06:18:49;;;;;;;3.57;1.60;;;11.80;99.90;;;-141.84;57.79;19427.72;5395171;26;20301;-68
2024/04/10 06:21:19;;;;;;;3.90;1.80;;;11.90;99.90;;;-141.84;57.68;19435.84;5409070;26;20289;-68
2024/04/10 06:23:49;;;;;;;5.37;1.90;;;11.90;99.90;;;-141.84;56.13;19464.28;5404958;26;20263;-68
2024/04/10 06:26:17;;;;;;;3.60;1.83;;;12.00;99.90;;;-141.84;56.01;19462.25;5408673;26;20235;-67
2024/04/10 06:28:47;;;;;;;3.13;1.60;;;12.00;99.90;;;-141.84;56.97;19456.16;5416632;26;20266;-68
2024/04/10 06:31:15;;;;;;;5.80;1.87;;;12.10;99.90;;;-141.84;57.46;19460.22;5414861;26;20381;-67
2024/04/10 06:33:45;;;;;;;4.80;2.10;;;12.10;99.90;;;-141.84;56.84;19456.16;5411016;26;20734;-67
2024/04/10 06:36:19;;;;;;;3.93;1.87;;;12.20;99.90;;;-141.84;54.31;19539.47;5405404;26;20369;-67
2024/04/10 06:38:49;;;;;;;4.73;1.60;;;12.20;99.90;;;-141.84;55.98;19466.31;5400259;26;20285;-67
2024/04/10 06:41:16;;;;;;;4.23;1.87;;;12.20;99.90;;;-141.84;55.64;19490.72;5400092;26;20223;-67
2024/04/10 06:43:46;;;;;;;3.90;1.60;;;12.20;99.90;;;-141.84;56.13;19472.41;5384818;26;20227;-68
2024/04/10 06:46:16;;;;;;;5.57;1.83;;;12.20;99.90;;;-141.84;55.12;19468.34;5410220;26;20252;-68
2024/04/10 06:48:48;;;;;;;4.40;1.97;;;12.30;99.90;;;-141.84;56.23;19472.41;5410787;26;20764;-68
2024/04/10 06:51:15;;;;;;;4.00;1.77;;;12.30;99.90;;;-141.84;55.63;19492.75;5399343;26;20297;-67
2024/04/10 06:53:48;;;;;;;5.27;1.63;;;12.30;99.90;;;-141.84;54.73;19480.53;5405588;26;20289;-69
2024/04/10 06:56:15;;;;;;;4.40;2.07;;;12.40;99.90;;;-141.84;54.09;19504.94;5404744;26;20254;-67
2024/04/10 06:58:46;;;;;;;3.67;1.63;;;12.50;99.90;;;-141.84;53.83;19549.63;5403828;26;20729;-64
2024/04/10 07:01:15;;;;;;;4.67;1.80;;;12.50;99.90;;;-141.84;52.84;19553.72;5413422;26;20255;-69
2024/04/10 07:03:46;;;;;;;4.63;1.57;;;12.70;99.90;;;-141.84;52.99;19541.50;5397055;26;20263;-70
2024/04/10 07:06:16;;;;;;;4.23;1.77;;;12.70;99.90;;;-141.84;53.13;19517.13;5407052;26;20259;-70
2024/04/10 07:08:51;;;;;;;4.03;1.57;;;12.80;99.90;;;-141.84;52.78;19549.63;5411875;26;20301;-68
2024/04/10 07:11:20;;;;;;;3.28;1.65;;;12.80;99.90;;;-141.84;52.46;19569.97;5393339;26;20299;-69
2024/04/10 07:13:52;;;;;;;3.50;1.60;;;12.90;99.90;;;-141.84;52.75;19537.44;5438734;26;20735;-68
2024/04/10 07:16:26;;;;;;;4.87;1.77;;;12.90;99.90;;;-141.84;52.02;19590.28;5483777;26;20802;-68
2024/04/10 07:18:58;;;;;;;4.70;1.70;;;12.90;99.90;;;-141.84;52.19;19594.34;5481735;26;20267;-68
2024/04/10 07:21:27;;;;;;;4.40;1.83;;;13.10;99.90;;;-141.84;50.99;19643.13;5486467;26;20299;-69
2024/04/10 07:24:01;;;;;;;3.65;1.95;;;13.10;99.90;;;-141.84;50.10;19632.97;5485848;26;20743;-69
2024/04/10 07:26:29;;;;;;;3.15;1.83;;;13.20;99.90;;;-141.84;49.86;19645.16;5483354;26;20878;-69
2024/04/10 07:29:00;;;;;;;3.50;1.97;;;13.30;99.90;;;-141.84;48.89;19661.41;5480853;26;20791;-65
2024/04/10 07:31:31;;;;;;;4.80;2.10;;;13.40;99.90;;;-141.84;48.81;19673.59;5483931;26;20344;-62
2024/04/10 07:34:04;;;;;;;3.28;2.15;;;13.40;99.90;;;-141.84;48.79;19653.28;5483702;26;20764;-63
2024/04/10 07:36:33;;;;;;;4.35;2.00;;;13.40;99.90;;;-141.84;48.93;19665.47;5483876;26;20252;-64
2024/04/10 07:39:12;;;;;;;5.47;2.30;;;13.50;99.90;;;-141.84;48.15;19693.94;5480874;26;20374;-62
2024/04/10 07:41:40;;;;;;;4.13;2.67;;;13.70;99.90;;;-141.84;47.82;19700.03;5477859;26;20261;-61
2024/04/10 07:44:10;;;;;;;5.87;2.43;;;13.90;99.90;;;-141.84;46.89;19748.81;5481923;26;20736;-62
2024/04/10 07:46:38;;;;;;;7.25;2.42;;;13.90;99.90;;;-141.84;46.82;19752.88;5486822;26;20287;-61
2024/04/10 07:49:10;;;;;;;4.55;2.60;;;13.90;99.90;;;-141.84;47.15;19716.28;5484632;26;20257;-61
2024/04/10 07:51:41;;;;;;;6.43;2.38;;;13.80;99.90;;;-141.84;46.85;19718.31;5480155;26;20283;-61
2024/04/10 07:54:12;;;;;;;5.55;2.38;;;13.80;99.90;;;-141.84;46.74;19724.41;5479406;26;20818;-65
2024/04/10 07:56:42;;;;;;;5.80;2.88;;;13.80;99.90;;;-141.84;46.28;19744.75;5479755;26;20253;-67
2024/04/10 07:59:10;;;;;;;5.65;2.50;;;13.80;99.90;;;-141.84;46.21;19726.44;5480126;26;20244;-66
2024/04/10 08:01:40;;;;;;;4.30;2.90;;;13.90;99.90;;;-141.84;46.12;19748.81;5480835;26;20236;-63
2024/04/10 08:04:07;;;;;;;5.90;3.00;;;13.90;99.90;;;-141.84;46.19;19722.38;5480860;26;20344;-63
2024/04/10 08:06:38;;;;;;;5.77;2.73;;;13.80;99.90;;;-141.84;46.67;19746.78;5480593;26;20253;-63
2024/04/10 08:09:06;;;;;;;6.25;2.88;;;13.80;99.90;;;-141.84;46.57;19738.66;5480937;26;20333;-62
2024/04/10 08:11:39;;;;;;;5.28;2.60;;;13.80;99.90;;;-141.84;47.74;19765.06;5480227;26;20249;-62
2024/04/10 08:14:07;;;;;;;5.03;2.70;;;14.00;99.90;;;-141.84;45.86;19789.44;5479612;26;20224;-64
2024/04/10 08:16:37;;;;;;;5.47;2.60;;;14.20;99.90;;;-141.84;45.71;19817.91;5466112;26;20229;-65
2024/04/10 08:19:06;;;;;;;5.43;2.80;;;14.40;99.90;;;-141.84;45.32;19893.09;5480559;26;20261;-64
2024/04/10 08:21:38;;;;;;;9.73;3.10;;;14.60;99.90;;;-141.84;44.46;19905.28;5479385;26;20630;-66
2024/04/10 08:24:06;;;;;;;6.60;2.92;;;14.90;99.90;;;-141.84;43.61;19893.09;5479418;26;20292;-64
2024/04/10 08:26:40;;;;;;;6.68;3.33;;;15.00;99.90;;;-141.84;43.73;19956.09;5479754;26;20257;-66
2024/04/10 08:29:09;;;;;;;4.75;2.53;;;15.10;99.90;;;-141.84;43.54;19893.09;5414818;26;20236;-66
2024/04/10 08:31:39;;;;;;;5.20;2.95;;;15.10;99.90;;;-141.84;44.65;19874.81;5479472;26;20631;-67
2024/04/10 08:34:08;;;;;;;9.23;3.05;;;14.90;99.90;;;-141.84;44.04;19854.50;5478118;26;20245;-66
2024/04/10 08:36:39;;;;;;;6.47;3.35;;;14.80;99.90;;;-141.84;43.90;19899.19;5480197;26;20765;-63
2024/04/10 08:39:06;;;;;;;5.85;3.15;;;14.80;99.90;;;-141.84;43.47;19870.75;5479031;26;20299;-64
2024/04/10 08:41:42;;;;;;;4.15;2.70;;;14.80;99.90;;;-141.84;43.45;19887.00;5479239;26;20709;-65
2024/04/10 08:44:11;;;;;;;5.40;2.78;;;14.80;99.90;;;-141.84;43.43;19919.53;5478751;26;20540;-66
2024/04/10 08:46:44;;;;;;;5.93;2.70;;;14.90;99.90;;;-141.84;43.28;19921.56;5479550;26;20767;-64
2024/04/10 08:49:12;;;;;;;5.47;3.00;;;14.90;99.90;;;-141.84;42.62;19964.25;5475421;26;20331;-66
2024/04/10 08:51:43;;;;;;;4.65;2.65;;;15.00;99.90;;;-141.84;42.46;19990.66;5461407;26;20260;-66
2024/04/10 08:54:14;;;;;;;5.13;3.03;;;15.20;99.90;;;-141.84;42.51;19966.28;5482418;26;20739;-66
2024/04/10 08:56:47;;;;;;;5.55;2.83;;;15.10;99.90;;;-141.84;42.34;19968.31;5483088;26;20264;-68
2024/04/10 08:59:14;;;;;;;5.07;2.80;;;15.20;99.90;;;-141.84;42.31;19996.75;5482596;26;20279;-66
2024/04/10 09:01:44;;;;;;;6.30;2.95;;;15.20;99.90;;;-141.84;41.62;20008.94;5484872;26;20244;-68
2024/04/10 09:04:17;;;;;;;5.88;3.00;;;15.40;99.90;;;-141.84;41.24;20000.81;5483555;26;20303;-68
2024/04/10 09:06:49;;;;;;;6.00;3.08;;;15.30;99.90;;;-141.84;41.32;20027.25;5483516;26;20356;-67
2024/04/10 09:09:23;;;;;;;4.60;3.05;;;15.30;99.90;;;-141.84;42.20;19988.63;5483261;26;20252;-73
2024/04/10 09:11:56;;;;;;;5.85;2.70;;;15.30;99.90;;;-141.84;41.36;20019.13;5433632;26;20340;-74
2024/04/10 09:14:23;;;;;;;5.70;2.63;;;15.20;99.90;;;-141.84;41.21;20006.91;5469411;26;21469;-73
2024/04/10 09:16:55;;;;;;;5.13;2.70;;;15.30;99.90;;;-141.84;41.21;20031.31;5485411;26;20240;-74
2024/04/10 09:19:23;;;;;;;4.35;2.40;;;15.50;99.90;;;-141.84;41.49;20126.84;5485578;26;20253;-74
2024/04/10 09:21:59;;;;;;;4.93;3.20;;;15.80;99.90;;;-141.84;40.76;20102.44;5470488;26;20376;-73
2024/04/10 09:24:29;;;;;;;6.10;3.45;;;16.00;99.90;;;-141.84;41.51;20069.94;5482549;26;20292;-73
2024/04/10 09:27:02;;;;;;;5.30;2.80;;;15.70;99.90;;;-141.84;42.30;20078.06;5482202;26;20248;-73
2024/04/10 09:29:30;;;;;;;5.05;2.70;;;15.70;99.90;;;-141.84;42.44;20053.66;5479262;26;20296;-71
2024/04/10 09:32:04;;;;;;;6.78;4.25;;;15.70;99.90;;;-141.84;42.07;20039.44;5483344;26;20256;-72
2024/04/10 09:34:34;;;;;;;6.15;3.75;;;15.70;99.90;;;-141.84;42.73;19974.41;5482656;26;20232;-74
2024/04/10 09:37:07;;;;;;;4.95;3.33;;;15.50;99.90;;;-141.84;42.85;19978.47;5468969;26;20369;-74
2024/04/10 09:39:35;;;;;;;6.07;3.58;;;15.40;99.90;;;-141.84;42.56;19980.50;5474529;26;20336;-73
2024/04/10 09:42:23;;;;;;;7.80;3.22;;;15.40;99.90;;;-141.84;41.86;20006.91;5482727;26;20291;-73
2024/04/10 09:45:05;;;;;;;7.15;3.50;;;15.40;99.90;;;-141.84;41.69;20010.97;5490219;26;20253;-78
2024/04/10 09:47:39;;;;;;;5.55;3.40;;;15.50;99.90;;;-141.84;40.98;20057.72;5482775;26;20264;-74
2024/04/10 09:50:10;;;;;;;7.00;3.60;;;15.50;99.90;;;-141.84;40.42;20047.56;5487138;26;20235;-74
2024/04/10 09:52:43;;;;;;;4.90;3.00;;;15.50;99.90;;;-141.84;40.77;20025.22;5506331;26;20233;-73
2024/04/10 09:55:13;;;;;;;6.30;3.60;;;15.50;99.90;;;-141.84;41.51;20043.50;5487724;26;20261;-69
2024/04/10 09:57:47;;;;;;;6.55;3.50;;;15.50;99.90;;;-141.84;42.20;19992.69;5487110;26;20248;-76
2024/04/10 10:00:16;;;;;;;5.05;3.45;;;15.40;99.90;;;-141.84;42.23;19986.59;5487914;26;20339;-74
2024/04/10 10:02:46;;;;;;;6.00;3.67;;;15.20;99.90;;;-141.84;42.96;19964.25;5472143;26;20383;-74
2024/04/10 10:05:21;;;;;;;5.20;3.20;;;15.20;99.90;;;-141.84;42.16;19972.38;5486665;26;20225;-74
2024/04/10 10:07:53;;;;;;;5.03;3.05;;;15.10;99.90;;;-141.84;41.98;20004.88;5486688;26;20847;-74
2024/04/10 10:10:20;;;;;;;7.45;3.72;;;15.20;99.90;;;-141.84;41.33;20114.63;5486829;26;20307;-74
2024/04/10 10:12:53;;;;;;;7.13;3.13;;;15.50;99.90;;;-141.84;40.98;20096.34;5486498;26;20252;-74
2024/04/10 10:15:21;;;;;;;5.60;3.05;;;15.60;99.90;;;-141.84;41.03;20090.25;5471003;26;20252;-74
2024/04/10 10:17:56;;;;;;;5.55;2.60;;;15.70;99.90;;;-141.84;40.77;20076.03;5502862;26;20244;-75
2024/04/10 10:20:33;;;;;;;6.28;3.30;;;15.70;99.90;;;-141.84;40.74;20092.28;5491162;26;20252;-74
2024/04/10 10:23:05;;;;;;;4.13;2.80;;;15.70;99.90;;;-141.84;40.59;20137.00;5473354;26;20275;-74